• Join FlightAware (Why Join?)
  • Login
  • US Flag 
12:07AM EST


 

Airport Tracker/Info


-or-


 

Live Flight TrackerFlight Track Log ✈ GGN7280 ✈ 12-Jun-2013 ✈ CYYZ - KALB

Flight Track Log - Related Links

Times and Time Zones

All times are in EDT time to prevent confusion due to time zone crossing. See the GGN7280 flight status page for this flight to view local times or setup timezone preferences in your user account.

Time Position Orientation Groundspeed Altitude Reporting Facility
EDT Latitude Longitude Course Direction KTS MPH feet Rate Location/Type
09:29AM 43.6333 -79.6167 154° Southeast 160 184 1,800  Level Toronto Center
09:30AM 43.5833 -79.5833 154° Southeast 180 207 3,000 1,260 Climbing Toronto Center
09:31AM 43.5667 -79.5167 109° East 190 219 4,400 900 Climbing Toronto Center
09:32AM 43.5500 -79.4500 109° East 220 253 4,900 300 Climbing Toronto Center
09:33AM 43.5333 -79.3500 103° East 240 276 5,000 360 Climbing Toronto Center
09:34AM 43.5167 -79.2667 105° East 240 276 5,700 1,260 Climbing Toronto Center
09:35AM 43.5000 -79.2000 109° East 210 242 7,600 1,620 Climbing Toronto Center
09:36AM 43.4833 -79.1333 109° East 210 242 9,000 1,380 Climbing Toronto Center
09:37AM 43.4833 -79.0333 90° East 210 242 10,400 1,380 Climbing Toronto Center
09:38AM 43.4667 -78.9500 105° East 220 253 11,800 1,380 Climbing Toronto Center
09:39AM 43.4667 -78.8500 90° East 230 265 13,200 1,260 Climbing Toronto Center
09:40AM 43.4500 -78.7833 109° East 230 265 14,400 1,140 Climbing Toronto Center
09:41AM 43.4500 -78.6833 90° East 240 276 15,500 1,080 Climbing Toronto Center
09:42AM 43.4333 -78.5833 103° East 250 288 16,600 960 Climbing Toronto Center
09:42AM 43.4350 -78.5792 61° Northeast 243 280 16,800 780 Climbing Cleveland Center
09:43AM 43.4228 -78.4797 100° East 248 285 17,700 900 Climbing Cleveland Center
09:44AM 43.4125 -78.3828 98° East 258 297 18,700 900 Climbing Cleveland Center
09:45AM 43.3981 -78.2806 101° East 258 297 19,600 840 Climbing Cleveland Center
09:46AM 43.3856 -78.1808 100° East 263 303 20,400 720 Climbing Cleveland Center
09:47AM 43.3731 -78.0758 99° East 268 308 21,100 600 Climbing Cleveland Center
09:48AM 43.3603 -77.9706 99° East 274 315 21,600 480 Climbing Cleveland Center
09:49AM 43.3453 -77.8628 101° East 279 321 22,100 420 Climbing Cleveland Center
09:50AM 43.3300 -77.7522 101° East 284 327 22,500 360 Climbing Cleveland Center
09:51AM 43.3147 -77.6414 101° East 294 338 22,900 240 Climbing Cleveland Center
09:52AM 43.3036 -77.5250 97° East 294 338 23,000  Climbing Cleveland Center
09:53AM 43.2878 -77.4089 101° East 299 344 23,000  Level Cleveland Center
09:54AM 43.2722 -77.2956 101° East 299 344 23,000  Level Cleveland Center
09:55AM 43.2567 -77.1853 101° East 299 344 23,000  Level Cleveland Center
09:57AM 43.2167 -76.9833 105° East 300 345 23,000  Level Toronto Center
09:58AM 43.2167 -76.8500 90° East 300 345 23,000  Level Toronto Center
09:59AM 43.2000 -76.7500 103° East 300 345 23,000  Level Toronto Center
10:00AM 43.1667 -76.6333 111° Southeast 300 345 23,000  Level Toronto Center
10:01AM 43.1500 -76.5167 101° East 300 345 23,000  Level Toronto Center
10:02AM 43.1333 -76.4167 103° East 290 334 23,000  Level Toronto Center
10:03AM 43.1333 -76.3000 90° East 290 334 23,000  Level Toronto Center
10:03AM 43.1369 -76.3186 285° West 297 342 23,000 -360 Level Boston Center
10:04AM 43.1239 -76.2069 99° East 297 342 22,500 -540 Descending Boston Center
10:05AM 43.0972 -76.0631 104° East 304 350 21,900 -720 Descending Boston Center
10:06AM 43.0822 -75.9456 100° East 304 350 21,100 -960 Descending Boston Center
10:07AM 43.0650 -75.8222 101° East 314 361 20,000 -1,080 Descending Boston Center
10:08AM 43.0458 -75.6992 102° East 324 373 19,000 -1,140 Descending Boston Center
10:09AM 43.0283 -75.5789 101° East 319 367 17,800 -1,560 Descending Boston Center
10:11AM 42.9833 -75.3500 105° East 330 380 15,100 -1,500 Descending Toronto Center
10:11AM 42.9928 -75.3414 34° Northeast 319 367 14,800 -1,680 Descending Boston Center
10:12AM 42.9792 -75.2272 99° East 313 360 12,700 -1,620 Descending Boston Center
10:13AM 42.9714 -75.1133 95° East 307 353 11,600 -840 Descending Boston Center
10:14AM 42.9633 -75.0136 96° East 291 335 11,100 -300 Descending Boston Center
10:15AM 42.9444 -74.9247 106° East 259 298 11,100  Level Boston Center
10:16AM 42.9297 -74.8250 101° East 254 292 11,100  Level Boston Center
10:17AM 42.9150 -74.7336 102° East 261 300 11,100 -120 Level Boston Center
10:18AM 42.8997 -74.6622 106° East 276 318 11,000  Descending Boston Center
10:18AM 42.8922 -74.6222 104° East 261 300 11,100 60 Climbing Boston Center
10:19AM 42.8733 -74.5111 103° East 268 308 11,100 -540 Level Boston Center
10:20AM 42.8583 -74.4200 103° East 268 308 10,100 -1,440 Descending Boston Center
10:22AM 42.8314 -74.2861 105° East 278 320 8,000 -1,500 Descending Boston Center
10:23AM 42.8164 -74.1864 102° East 269 310 6,800 -1,260 Descending Boston Center
10:23AM 42.8050 -74.1156 102° East 258 297 5,800 -1,620 Descending Boston Center
10:24AM 42.7831 -74.0300 109° East 211 243 3,800 -1,200 Descending Boston Center
10:25AM 42.7567 -73.9839 128° Southeast 208 239 3,400 -600 Descending Boston Center
10:27AM 42.7097 -73.9067 130° Southeast 226 260 2,600 7,800 Descending Boston Center
10:27AM 42.6919 -73.8467 112° Southeast 208 239 19,000 8,820 Climbing Boston Center
10:28AM 42.6614 -73.7839 123° Southeast 208 239 19,000  Level Boston Center
10:29AM 42.6308 -73.7183 122° Southeast 208 239 19,000  Level Boston Center
10:30AM 42.6064 -73.6672 123° Southeast 208 239 19,000  Level Boston Center
10:32AM 42.6064 -73.6672 236° Southwest 208 239 19,000  Level Boston Center